sensor_id;sensor_type;location;lat;lon;timestamp;pressure;altitude;pressure_sealevel;temperature;humidity
19600;BME280;9947;57.722;12.012;2022-12-28T00:01:53;100627.94;;;2.66;100.00
19600;BME280;9947;57.722;12.012;2022-12-28T00:04:27;100626.06;;;2.68;100.00
19600;BME280;9947;57.722;12.012;2022-12-28T00:07:00;100620.66;;;2.70;100.00
19600;BME280;9947;57.722;12.012;2022-12-28T00:09:33;100624.97;;;2.72;100.00
19600;BME280;9947;57.722;12.012;2022-12-28T00:12:07;100614.66;;;2.65;100.00
19600;BME280;9947;57.722;12.012;2022-12-28T00:14:39;100609.53;;;2.60;100.00
19600;BME280;9947;57.722;12.012;2022-12-28T00:17:12;100604.13;;;2.62;100.00
19600;BME280;9947;57.722;12.012;2022-12-28T00:19:45;100600.78;;;2.57;100.00
19600;BME280;9947;57.722;12.012;2022-12-28T00:22:12;100593.56;;;2.59;100.00
19600;BME280;9947;57.722;12.012;2022-12-28T00:24:45;100600.06;;;2.53;100.00
19600;BME280;9947;57.722;12.012;2022-12-28T00:27:26;100595.66;;;2.52;100.00
19600;BME280;9947;57.722;12.012;2022-12-28T00:29:54;100593.00;;;2.52;100.00
19600;BME280;9947;57.722;12.012;2022-12-28T00:32:27;100585.78;;;2.54;100.00
19600;BME280;9947;57.722;12.012;2022-12-28T00:35:00;100582.31;;;2.52;100.00
19600;BME280;9947;57.722;12.012;2022-12-28T00:37:27;100585.28;;;2.46;100.00
19600;BME280;9947;57.722;12.012;2022-12-28T00:39:54;100581.75;;;2.45;100.00
19600;BME280;9947;57.722;12.012;2022-12-28T00:42:27;100580.38;;;2.56;100.00
19600;BME280;9947;57.722;12.012;2022-12-28T00:44:55;100574.31;;;2.52;100.00
19600;BME280;9947;57.722;12.012;2022-12-28T00:47:29;100574.66;;;2.44;100.00
19600;BME280;9947;57.722;12.012;2022-12-28T00:49:56;100575.59;;;2.43;100.00
19600;BME280;9947;57.722;12.012;2022-12-28T00:52:29;100559.66;;;2.42;100.00
19600;BME280;9947;57.722;12.012;2022-12-28T00:54:56;100554.56;;;2.37;100.00
19600;BME280;9947;57.722;12.012;2022-12-28T00:57:30;100548.44;;;2.35;100.00
19600;BME280;9947;57.722;12.012;2022-12-28T01:00:08;100548.47;;;2.34;100.00
19600;BME280;9947;57.722;12.012;2022-12-28T01:02:42;100546.69;;;2.34;100.00
19600;BME280;9947;57.722;12.012;2022-12-28T01:05:09;100543.28;;;2.31;100.00
19600;BME280;9947;57.722;12.012;2022-12-28T01:07:42;100542.63;;;2.26;100.00
19600;BME280;9947;57.722;12.012;2022-12-28T01:10:09;100530.72;;;2.33;100.00
19600;BME280;9947;57.722;12.012;2022-12-28T01:12:43;100528.34;;;2.27;100.00
19600;BME280;9947;57.722;12.012;2022-12-28T01:15:19;100531.03;;;2.27;100.00
19600;BME280;9947;57.722;12.012;2022-12-28T01:17:59;100528.88;;;2.35;100.00
19600;BME280;9947;57.722;12.012;2022-12-28T01:20:26;100529.00;;;2.32;100.00
19600;BME280;9947;57.722;12.012;2022-12-28T01:22:59;100522.09;;;2.28;100.00
19600;BME280;9947;57.722;12.012;2022-12-28T01:25:33;100517.53;;;2.30;100.00
19600;BME280;9947;57.722;12.012;2022-12-28T01:28:00;100513.13;;;2.29;100.00
19600;BME280;9947;57.722;12.012;2022-12-28T01:30:35;100517.47;;;2.31;100.00
19600;BME280;9947;57.722;12.012;2022-12-28T01:33:09;100505.78;;;2.34;100.00
19600;BME280;9947;57.722;12.012;2022-12-28T01:35:36;100497.00;;;2.32;100.00
19600;BME280;9947;57.722;12.012;2022-12-28T01:38:09;100505.00;;;2.32;100.00
19600;BME280;9947;57.722;12.012;2022-12-28T01:40:43;100503.34;;;2.29;100.00
19600;BME280;9947;57.722;12.012;2022-12-28T01:43:16;100493.28;;;2.36;100.00
19600;BME280;9947;57.722;12.012;2022-12-28T01:45:49;100492.44;;;2.34;100.00
19600;BME280;9947;57.722;12.012;2022-12-28T01:48:24;100492.13;;;2.41;100.00
19600;BME280;9947;57.722;12.012;2022-12-28T01:50:55;100489.75;;;2.35;100.00
19600;BME280;9947;57.722;12.012;2022-12-28T01:53:28;100485.47;;;2.31;100.00
19600;BME280;9947;57.722;12.012;2022-12-28T01:56:03;100482.69;;;2.34;100.00
19600;BME280;9947;57.722;12.012;2022-12-28T01:58:37;100471.56;;;2.25;100.00
19600;BME280;9947;57.722;12.012;2022-12-28T02:01:06;100482.22;;;2.25;100.00
19600;BME280;9947;57.722;12.012;2022-12-28T02:03:42;100470.25;;;2.14;100.00
19600;BME280;9947;57.722;12.012;2022-12-28T02:06:10;100470.56;;;2.08;100.00
19600;BME280;9947;57.722;12.012;2022-12-28T02:08:55;100459.00;;;2.08;100.00
19600;BME280;9947;57.722;12.012;2022-12-28T02:11:30;100464.47;;;1.86;100.00
19600;BME280;9947;57.722;12.012;2022-12-28T02:14:05;100459.84;;;1.90;100.00
19600;BME280;9947;57.722;12.012;2022-12-28T02:16:34;100446.13;;;1.78;100.00
19600;BME280;9947;57.722;12.012;2022-12-28T02:19:11;100438.69;;;1.66;100.00
19600;BME280;9947;57.722;12.012;2022-12-28T02:22:07;100433.44;;;1.65;100.00
19600;BME280;9947;57.722;12.012;2022-12-28T02:25:15;100420.50;;;1.55;100.00
19600;BME280;9947;57.722;12.012;2022-12-28T02:28:03;100414.53;;;1.50;100.00
19600;BME280;9947;57.722;12.012;2022-12-28T02:30:46;100410.28;;;1.26;100.00
19600;BME280;9947;57.722;12.012;2022-12-28T02:33:25;100403.28;;;1.23;100.00
19600;BME280;9947;57.722;12.012;2022-12-28T02:35:56;100395.16;;;1.27;100.00
19600;BME280;9947;57.722;12.012;2022-12-28T02:38:35;100399.75;;;1.03;100.00
19600;BME280;9947;57.722;12.012;2022-12-28T02:41:12;100400.50;;;1.06;100.00
19600;BME280;9947;57.722;12.012;2022-12-28T02:43:46;100381.03;;;1.06;100.00
19600;BME280;9947;57.722;12.012;2022-12-28T02:46:23;100376.13;;;0.95;100.00
19600;BME280;9947;57.722;12.012;2022-12-28T02:49:17;100370.94;;;0.72;100.00
19600;BME280;9947;57.722;12.012;2022-12-28T02:52:15;100369.00;;;0.75;100.00
19600;BME280;9947;57.722;12.012;2022-12-28T02:54:56;100363.69;;;0.75;100.00
19600;BME280;9947;57.722;12.012;2022-12-28T02:58:02;100359.56;;;0.68;100.00
19600;BME280;9947;57.722;12.012;2022-12-28T03:00:41;100355.22;;;0.66;100.00
19600;BME280;9947;57.722;12.012;2022-12-28T03:03:21;100345.84;;;0.57;100.00
19600;BME280;9947;57.722;12.012;2022-12-28T03:06:05;100342.41;;;0.55;100.00
19600;BME280;9947;57.722;12.012;2022-12-28T03:09:01;100339.22;;;0.45;100.00
19600;BME280;9947;57.722;12.012;2022-12-28T03:11:38;100327.13;;;0.38;100.00
19600;BME280;9947;57.722;12.012;2022-12-28T03:14:11;100321.00;;;0.36;100.00
19600;BME280;9947;57.722;12.012;2022-12-28T03:16:47;100313.22;;;0.32;100.00
19600;BME280;9947;57.722;12.012;2022-12-28T03:19:38;100311.56;;;0.29;100.00
19600;BME280;9947;57.722;12.012;2022-12-28T03:22:39;100301.94;;;0.26;100.00
19600;BME280;9947;57.722;12.012;2022-12-28T03:25:27;100289.53;;;0.25;100.00
19600;BME280;9947;57.722;12.012;2022-12-28T03:28:23;100287.75;;;0.26;100.00
19600;BME280;9947;57.722;12.012;2022-12-28T03:31:13;100279.72;;;0.27;100.00
19600;BME280;9947;57.722;12.012;2022-12-28T03:33:50;100267.47;;;0.23;100.00
19600;BME280;9947;57.722;12.012;2022-12-28T03:36:26;100258.91;;;0.17;100.00
19600;BME280;9947;57.722;12.012;2022-12-28T03:39:15;100254.69;;;0.11;100.00
19600;BME280;9947;57.722;12.012;2022-12-28T03:41:50;100245.66;;;0.15;100.00
19600;BME280;9947;57.722;12.012;2022-12-28T03:44:48;100235.69;;;0.20;100.00
19600;BME280;9947;57.722;12.012;2022-12-28T03:47:24;100225.28;;;0.16;100.00
19600;BME280;9947;57.722;12.012;2022-12-28T03:49:58;100225.19;;;0.17;100.00
19600;BME280;9947;57.722;12.012;2022-12-28T03:52:27;100215.50;;;0.16;100.00
19600;BME280;9947;57.722;12.012;2022-12-28T03:55:01;100217.44;;;0.33;100.00
19600;BME280;9947;57.722;12.012;2022-12-28T03:57:28;100209.91;;;0.22;100.00
19600;BME280;9947;57.722;12.012;2022-12-28T04:00:01;100202.50;;;0.30;100.00
19600;BME280;9947;57.722;12.012;2022-12-28T04:02:43;100198.97;;;0.30;100.00
19600;BME280;9947;57.722;12.012;2022-12-28T04:05:10;100197.31;;;0.27;100.00
19600;BME280;9947;57.722;12.012;2022-12-28T04:07:44;100193.53;;;0.33;100.00
19600;BME280;9947;57.722;12.012;2022-12-28T04:10:11;100188.47;;;0.27;100.00
19600;BME280;9947;57.722;12.012;2022-12-28T04:12:45;100182.31;;;0.26;100.00
19600;BME280;9947;57.722;12.012;2022-12-28T04:15:12;100180.16;;;0.35;100.00
19600;BME280;9947;57.722;12.012;2022-12-28T04:17:45;100166.06;;;0.33;100.00
19600;BME280;9947;57.722;12.012;2022-12-28T04:20:12;100159.03;;;0.32;100.00
19600;BME280;9947;57.722;12.012;2022-12-28T04:22:46;100157.63;;;0.23;100.00
19600;BME280;9947;57.722;12.012;2022-12-28T04:25:13;100155.72;;;0.26;100.00
19600;BME280;9947;57.722;12.012;2022-12-28T04:27:47;100142.47;;;0.25;100.00
19600;BME280;9947;57.722;12.012;2022-12-28T04:30:21;100128.84;;;0.12;100.00
19600;BME280;9947;57.722;12.012;2022-12-28T04:32:54;100133.25;;;0.13;100.00
19600;BME280;9947;57.722;12.012;2022-12-28T04:35:21;100132.25;;;0.16;100.00
19600;BME280;9947;57.722;12.012;2022-12-28T04:37:57;100124.63;;;0.08;100.00
19600;BME280;9947;57.722;12.012;2022-12-28T04:40:30;100121.16;;;0.06;100.00
19600;BME280;9947;57.722;12.012;2022-12-28T04:43:03;100118.56;;;0.05;100.00
19600;BME280;9947;57.722;12.012;2022-12-28T04:45:30;100115.13;;;0.03;100.00
19600;BME280;9947;57.722;12.012;2022-12-28T04:48:04;100109.19;;;-0.04;100.00
19600;BME280;9947;57.722;12.012;2022-12-28T04:50:37;100087.00;;;-0.03;100.00
19600;BME280;9947;57.722;12.012;2022-12-28T04:53:05;100088.72;;;-0.02;100.00
19600;BME280;9947;57.722;12.012;2022-12-28T04:55:41;100081.44;;;0.03;100.00
19600;BME280;9947;57.722;12.012;2022-12-28T04:58:08;100084.88;;;0.05;100.00
19600;BME280;9947;57.722;12.012;2022-12-28T05:00:41;100078.00;;;0.01;100.00
19600;BME280;9947;57.722;12.012;2022-12-28T05:03:15;100072.91;;;-0.05;100.00
19600;BME280;9947;57.722;12.012;2022-12-28T05:05:48;100068.41;;;-0.03;100.00
19600;BME280;9947;57.722;12.012;2022-12-28T05:08:16;100060.56;;;-0.06;100.00
19600;BME280;9947;57.722;12.012;2022-12-28T05:10:58;100055.47;;;-0.11;100.00
19600;BME280;9947;57.722;12.012;2022-12-28T05:13:25;100052.06;;;-0.14;100.00
19600;BME280;9947;57.722;12.012;2022-12-28T05:16:00;100047.34;;;-0.08;100.00
19600;BME280;9947;57.722;12.012;2022-12-28T05:18:27;100042.03;;;-0.08;100.00
19600;BME280;9947;57.722;12.012;2022-12-28T05:21:03;100027.16;;;-0.12;100.00
19600;BME280;9947;57.722;12.012;2022-12-28T05:23:38;100012.09;;;-0.11;100.00
19600;BME280;9947;57.722;12.012;2022-12-28T05:26:13;100007.50;;;-0.08;100.00
19600;BME280;9947;57.722;12.012;2022-12-28T05:28:41;100007.78;;;-0.14;100.00
19600;BME280;9947;57.722;12.012;2022-12-28T05:31:17;100001.47;;;-0.11;100.00
19600;BME280;9947;57.722;12.012;2022-12-28T05:33:51;99995.22;;;-0.10;100.00
19600;BME280;9947;57.722;12.012;2022-12-28T05:36:26;99995.00;;;-0.06;100.00
19600;BME280;9947;57.722;12.012;2022-12-28T05:38:54;99986.25;;;-0.08;100.00
19600;BME280;9947;57.722;12.012;2022-12-28T05:41:29;99977.41;;;-0.08;100.00
19600;BME280;9947;57.722;12.012;2022-12-28T05:43:57;99973.75;;;-0.06;100.00
19600;BME280;9947;57.722;12.012;2022-12-28T05:46:32;99971.03;;;-0.04;100.00
19600;BME280;9947;57.722;12.012;2022-12-28T05:49:07;99960.41;;;-0.04;100.00
19600;BME280;9947;57.722;12.012;2022-12-28T05:51:34;99955.88;;;-0.02;100.00
19600;BME280;9947;57.722;12.012;2022-12-28T05:54:09;99943.41;;;0.00;100.00
19600;BME280;9947;57.722;12.012;2022-12-28T05:56:43;99949.44;;;0.04;100.00
19600;BME280;9947;57.722;12.012;2022-12-28T05:59:10;99940.53;;;0.05;100.00
19600;BME280;9947;57.722;12.012;2022-12-28T06:01:44;99944.19;;;0.02;100.00
19600;BME280;9947;57.722;12.012;2022-12-28T06:04:19;99934.44;;;0.03;100.00
19600;BME280;9947;57.722;12.012;2022-12-28T06:06:52;99927.56;;;-0.03;100.00
19600;BME280;9947;57.722;12.012;2022-12-28T06:09:20;99921.34;;;-0.02;100.00
19600;BME280;9947;57.722;12.012;2022-12-28T06:11:54;99915.03;;;0.01;100.00
19600;BME280;9947;57.722;12.012;2022-12-28T06:14:21;99906.13;;;0.02;100.00
19600;BME280;9947;57.722;12.012;2022-12-28T06:16:54;99909.44;;;0.07;100.00
19600;BME280;9947;57.722;12.012;2022-12-28T06:19:21;99894.50;;;0.04;100.00
19600;BME280;9947;57.722;12.012;2022-12-28T06:21:54;99888.88;;;0.10;100.00
19600;BME280;9947;57.722;12.012;2022-12-28T06:24:29;99879.03;;;0.12;100.00
19600;BME280;9947;57.722;12.012;2022-12-28T06:27:02;99886.06;;;0.13;100.00
19600;BME280;9947;57.722;12.012;2022-12-28T06:29:35;99877.31;;;0.11;100.00
19600;BME280;9947;57.722;12.012;2022-12-28T06:32:09;99879.50;;;0.03;100.00
19600;BME280;9947;57.722;12.012;2022-12-28T06:34:42;99868.56;;;0.09;100.00
19600;BME280;9947;57.722;12.012;2022-12-28T06:37:09;99870.72;;;0.01;100.00
19600;BME280;9947;57.722;12.012;2022-12-28T06:39:43;99870.66;;;0.03;100.00
19600;BME280;9947;57.722;12.012;2022-12-28T06:42:17;99859.88;;;0.06;100.00
19600;BME280;9947;57.722;12.012;2022-12-28T06:44:51;99851.91;;;0.06;100.00
19600;BME280;9947;57.722;12.012;2022-12-28T06:47:24;99850.41;;;0.00;100.00
19600;BME280;9947;57.722;12.012;2022-12-28T06:49:58;99849.31;;;0.04;100.00
19600;BME280;9947;57.722;12.012;2022-12-28T06:52:25;99848.38;;;0.05;100.00
19600;BME280;9947;57.722;12.012;2022-12-28T06:55:00;99836.22;;;-0.01;100.00
19600;BME280;9947;57.722;12.012;2022-12-28T06:57:34;99832.53;;;0.04;100.00
19600;BME280;9947;57.722;12.012;2022-12-28T07:00:01;99827.91;;;0.07;100.00
19600;BME280;9947;57.722;12.012;2022-12-28T07:02:35;99828.00;;;0.06;100.00
19600;BME280;9947;57.722;12.012;2022-12-28T07:05:09;99820.66;;;0.11;100.00
19600;BME280;9947;57.722;12.012;2022-12-28T07:07:36;99824.50;;;0.22;100.00
19600;BME280;9947;57.722;12.012;2022-12-28T07:10:11;99828.78;;;0.08;100.00
19600;BME280;9947;57.722;12.012;2022-12-28T07:12:38;99815.50;;;0.08;100.00
19600;BME280;9947;57.722;12.012;2022-12-28T07:15:11;99817.38;;;0.06;100.00
19600;BME280;9947;57.722;12.012;2022-12-28T07:17:38;99816.56;;;0.04;100.00
19600;BME280;9947;57.722;12.012;2022-12-28T07:20:12;99811.75;;;0.12;100.00
19600;BME280;9947;57.722;12.012;2022-12-28T07:22:39;99809.38;;;0.06;100.00
19600;BME280;9947;57.722;12.012;2022-12-28T07:25:13;99802.59;;;0.00;100.00
19600;BME280;9947;57.722;12.012;2022-12-28T07:27:47;99807.94;;;-0.02;100.00
19600;BME280;9947;57.722;12.012;2022-12-28T07:30:14;99805.09;;;0.03;100.00
19600;BME280;9947;57.722;12.012;2022-12-28T07:32:54;99786.75;;;-0.03;100.00
19600;BME280;9947;57.722;12.012;2022-12-28T07:35:27;99785.19;;;-0.07;100.00
19600;BME280;9947;57.722;12.012;2022-12-28T07:37:54;99783.63;;;-0.11;100.00
19600;BME280;9947;57.722;12.012;2022-12-28T07:40:28;99776.59;;;-0.12;100.00
19600;BME280;9947;57.722;12.012;2022-12-28T07:43:02;99765.50;;;-0.03;100.00
19600;BME280;9947;57.722;12.012;2022-12-28T07:45:29;99772.84;;;-0.08;100.00
19600;BME280;9947;57.722;12.012;2022-12-28T07:48:02;99778.09;;;-0.07;100.00
19600;BME280;9947;57.722;12.012;2022-12-28T07:50:29;99766.09;;;0.04;100.00
19600;BME280;9947;57.722;12.012;2022-12-28T07:53:03;99767.03;;;0.03;100.00
19600;BME280;9947;57.722;12.012;2022-12-28T07:55:37;99757.63;;;-0.05;100.00
19600;BME280;9947;57.722;12.012;2022-12-28T07:58:11;99750.06;;;0.05;100.00
19600;BME280;9947;57.722;12.012;2022-12-28T08:00:38;99754.53;;;0.05;100.00
19600;BME280;9947;57.722;12.012;2022-12-28T08:03:11;99754.81;;;-0.02;100.00
19600;BME280;9947;57.722;12.012;2022-12-28T08:05:38;99744.19;;;-0.02;100.00
19600;BME280;9947;57.722;12.012;2022-12-28T08:08:11;99743.47;;;-0.05;100.00
19600;BME280;9947;57.722;12.012;2022-12-28T08:10:45;99730.91;;;-0.02;100.00
19600;BME280;9947;57.722;12.012;2022-12-28T08:13:19;99733.72;;;-0.05;100.00
19600;BME280;9947;57.722;12.012;2022-12-28T08:15:52;99729.09;;;-0.01;100.00
19600;BME280;9947;57.722;12.012;2022-12-28T08:18:33;99723.59;;;0.04;100.00
19600;BME280;9947;57.722;12.012;2022-12-28T08:21:15;99725.22;;;0.06;100.00
19600;BME280;9947;57.722;12.012;2022-12-28T08:23:42;99718.97;;;0.07;100.00
19600;BME280;9947;57.722;12.012;2022-12-28T08:26:18;99713.56;;;0.09;100.00
19600;BME280;9947;57.722;12.012;2022-12-28T08:28:47;99715.59;;;0.21;100.00
19600;BME280;9947;57.722;12.012;2022-12-28T08:31:23;99713.97;;;0.18;100.00
19600;BME280;9947;57.722;12.012;2022-12-28T08:33:51;99710.28;;;0.21;100.00
19600;BME280;9947;57.722;12.012;2022-12-28T08:36:25;99708.09;;;0.12;100.00
19600;BME280;9947;57.722;12.012;2022-12-28T08:38:53;99699.41;;;0.25;100.00
19600;BME280;9947;57.722;12.012;2022-12-28T08:41:28;99688.00;;;0.23;100.00
19600;BME280;9947;57.722;12.012;2022-12-28T08:43:56;99687.72;;;0.29;100.00
19600;BME280;9947;57.722;12.012;2022-12-28T08:46:31;99686.69;;;0.32;100.00
19600;BME280;9947;57.722;12.012;2022-12-28T08:49:05;99687.31;;;0.20;100.00
19600;BME280;9947;57.722;12.012;2022-12-28T08:51:40;99679.91;;;0.26;100.00
19600;BME280;9947;57.722;12.012;2022-12-28T08:54:08;99673.41;;;0.32;100.00
19600;BME280;9947;57.722;12.012;2022-12-28T08:56:45;99674.03;;;0.37;100.00
19600;BME280;9947;57.722;12.012;2022-12-28T08:59:14;99670.19;;;0.43;100.00
19600;BME280;9947;57.722;12.012;2022-12-28T09:01:47;99667.75;;;0.38;100.00
19600;BME280;9947;57.722;12.012;2022-12-28T09:04:21;99667.06;;;0.35;100.00
19600;BME280;9947;57.722;12.012;2022-12-28T09:06:49;99658.94;;;0.38;100.00
19600;BME280;9947;57.722;12.012;2022-12-28T09:09:22;99657.31;;;0.51;100.00
19600;BME280;9947;57.722;12.012;2022-12-28T09:11:53;99653.97;;;0.47;100.00
19600;BME280;9947;57.722;12.012;2022-12-28T09:14:26;99651.66;;;0.41;100.00
19600;BME280;9947;57.722;12.012;2022-12-28T09:16:59;99648.66;;;0.47;100.00
19600;BME280;9947;57.722;12.012;2022-12-28T09:19:26;99645.75;;;0.52;100.00
19600;BME280;9947;57.722;12.012;2022-12-28T09:21:59;99638.16;;;0.61;100.00
19600;BME280;9947;57.722;12.012;2022-12-28T09:24:33;99632.94;;;0.60;100.00
19600;BME280;9947;57.722;12.012;2022-12-28T09:27:01;99625.72;;;0.62;100.00
19600;BME280;9947;57.722;12.012;2022-12-28T09:29:35;99624.44;;;0.69;100.00
19600;BME280;9947;57.722;12.012;2022-12-28T09:32:02;99617.31;;;0.70;100.00
19600;BME280;9947;57.722;12.012;2022-12-28T09:34:35;99610.28;;;0.69;100.00
19600;BME280;9947;57.722;12.012;2022-12-28T09:37:02;99610.31;;;0.84;100.00
19600;BME280;9947;57.722;12.012;2022-12-28T09:39:29;99603.47;;;0.80;100.00
19600;BME280;9947;57.722;12.012;2022-12-28T09:42:15;99608.78;;;0.80;100.00
19600;BME280;9947;57.722;12.012;2022-12-28T09:44:57;99606.69;;;0.70;100.00
19600;BME280;9947;57.722;12.012;2022-12-28T09:47:37;99596.47;;;0.78;100.00
19600;BME280;9947;57.722;12.012;2022-12-28T09:50:23;99582.31;;;0.77;100.00
19600;BME280;9947;57.722;12.012;2022-12-28T09:53:23;99584.22;;;0.75;100.00
19600;BME280;9947;57.722;12.012;2022-12-28T09:56:00;99579.84;;;0.74;100.00
19600;BME280;9947;57.722;12.012;2022-12-28T09:58:38;99574.19;;;0.80;100.00
19600;BME280;9947;57.722;12.012;2022-12-28T10:01:10;99568.53;;;0.86;100.00
19600;BME280;9947;57.722;12.012;2022-12-28T10:03:46;99576.84;;;0.80;100.00
19600;BME280;9947;57.722;12.012;2022-12-28T10:06:23;99566.19;;;0.96;100.00
19600;BME280;9947;57.722;12.012;2022-12-28T10:08:52;99562.88;;;0.92;100.00
19600;BME280;9947;57.722;12.012;2022-12-28T10:11:29;99548.78;;;0.90;100.00
19600;BME280;9947;57.722;12.012;2022-12-28T10:14:16;99545.09;;;0.93;100.00
19600;BME280;9947;57.722;12.012;2022-12-28T10:16:51;99545.00;;;0.95;100.00
19600;BME280;9947;57.722;12.012;2022-12-28T10:19:20;99546.47;;;1.00;100.00
19600;BME280;9947;57.722;12.012;2022-12-28T10:21:59;99536.50;;;1.04;100.00
19600;BME280;9947;57.722;12.012;2022-12-28T10:24:27;99538.25;;;1.05;100.00
19600;BME280;9947;57.722;12.012;2022-12-28T10:27:03;99529.22;;;1.07;100.00
19600;BME280;9947;57.722;12.012;2022-12-28T10:29:40;99525.69;;;1.07;100.00
19600;BME280;9947;57.722;12.012;2022-12-28T10:32:08;99518.97;;;1.00;100.00
19600;BME280;9947;57.722;12.012;2022-12-28T10:34:53;99509.66;;;0.92;100.00
19600;BME280;9947;57.722;12.012;2022-12-28T10:37:29;99516.69;;;0.93;100.00
19600;BME280;9947;57.722;12.012;2022-12-28T10:40:22;99510.06;;;1.01;100.00
19600;BME280;9947;57.722;12.012;2022-12-28T10:42:57;99499.69;;;1.12;100.00
19600;BME280;9947;57.722;12.012;2022-12-28T10:45:33;99496.91;;;1.13;100.00
19600;BME280;9947;57.722;12.012;2022-12-28T10:48:09;99494.66;;;1.21;100.00
19600;BME280;9947;57.722;12.012;2022-12-28T10:50:50;99493.22;;;1.16;100.00
19600;BME280;9947;57.722;12.012;2022-12-28T10:53:30;99490.66;;;1.14;100.00
19600;BME280;9947;57.722;12.012;2022-12-28T10:56:21;99486.94;;;1.17;100.00
19600;BME280;9947;57.722;12.012;2022-12-28T10:59:17;99486.00;;;1.18;100.00
19600;BME280;9947;57.722;12.012;2022-12-28T11:01:46;99484.59;;;1.27;100.00
19600;BME280;9947;57.722;12.012;2022-12-28T11:04:22;99478.22;;;1.29;100.00
19600;BME280;9947;57.722;12.012;2022-12-28T11:06:57;99485.78;;;1.37;100.00
19600;BME280;9947;57.722;12.012;2022-12-28T11:09:25;99478.28;;;1.43;100.00
19600;BME280;9947;57.722;12.012;2022-12-28T11:12:16;99472.59;;;1.49;100.00
19600;BME280;9947;57.722;12.012;2022-12-28T11:14:51;99469.94;;;1.49;100.00
19600;BME280;9947;57.722;12.012;2022-12-28T11:17:27;99480.22;;;1.55;100.00
19600;BME280;9947;57.722;12.012;2022-12-28T11:20:05;99461.75;;;1.52;100.00
19600;BME280;9947;57.722;12.012;2022-12-28T11:22:34;99458.13;;;1.53;100.00
19600;BME280;9947;57.722;12.012;2022-12-28T11:25:07;99458.78;;;1.43;100.00
19600;BME280;9947;57.722;12.012;2022-12-28T11:27:35;99445.47;;;1.43;100.00
19600;BME280;9947;57.722;12.012;2022-12-28T11:30:18;99446.06;;;1.48;100.00
19600;BME280;9947;57.722;12.012;2022-12-28T11:32:50;99442.44;;;1.49;100.00
19600;BME280;9947;57.722;12.012;2022-12-28T11:35:28;99449.53;;;1.64;100.00
19600;BME280;9947;57.722;12.012;2022-12-28T11:37:57;99442.38;;;1.65;100.00
19600;BME280;9947;57.722;12.012;2022-12-28T11:40:48;99434.59;;;1.62;100.00
19600;BME280;9947;57.722;12.012;2022-12-28T11:43:50;99438.53;;;1.54;100.00
19600;BME280;9947;57.722;12.012;2022-12-28T11:46:41;99426.69;;;1.60;100.00
19600;BME280;9947;57.722;12.012;2022-12-28T11:49:25;99421.16;;;1.63;100.00
19600;BME280;9947;57.722;12.012;2022-12-28T11:55:45;99418.69;;;1.74;100.00
19600;BME280;9947;57.722;12.012;2022-12-28T11:58:43;99418.91;;;1.85;100.00
19600;BME280;9947;57.722;12.012;2022-12-28T12:01:50;99420.31;;;1.91;100.00
19600;BME280;9947;57.722;12.012;2022-12-28T12:04:32;99414.03;;;1.92;100.00
19600;BME280;9947;57.722;12.012;2022-12-28T12:07:19;99413.09;;;1.93;100.00
19600;BME280;9947;57.722;12.012;2022-12-28T12:09:48;99413.47;;;1.87;100.00
19600;BME280;9947;57.722;12.012;2022-12-28T12:12:47;99414.22;;;1.75;100.00
19600;BME280;9947;57.722;12.012;2022-12-28T12:15:15;99408.53;;;1.67;100.00
19600;BME280;9947;57.722;12.012;2022-12-28T12:17:57;99413.56;;;1.71;100.00
19600;BME280;9947;57.722;12.012;2022-12-28T12:20:44;99402.34;;;1.66;100.00
19600;BME280;9947;57.722;12.012;2022-12-28T12:23:30;99413.00;;;1.66;100.00
19600;BME280;9947;57.722;12.012;2022-12-28T12:26:03;99403.19;;;1.67;100.00
19600;BME280;9947;57.722;12.012;2022-12-28T12:28:46;99402.41;;;1.79;100.00
19600;BME280;9947;57.722;12.012;2022-12-28T12:31:20;99410.22;;;1.68;100.00
19600;BME280;9947;57.722;12.012;2022-12-28T12:34:01;99400.16;;;1.73;100.00
19600;BME280;9947;57.722;12.012;2022-12-28T12:36:54;99400.25;;;1.85;100.00
19600;BME280;9947;57.722;12.012;2022-12-28T12:39:48;99392.63;;;1.79;100.00
19600;BME280;9947;57.722;12.012;2022-12-28T12:42:31;99395.75;;;1.72;100.00
19600;BME280;9947;57.722;12.012;2022-12-28T12:45:16;99397.47;;;1.73;100.00
19600;BME280;9947;57.722;12.012;2022-12-28T12:48:21;99400.16;;;1.87;100.00
19600;BME280;9947;57.722;12.012;2022-12-28T12:51:09;99391.22;;;1.88;100.00
19600;BME280;9947;57.722;12.012;2022-12-28T12:53:57;99396.44;;;1.75;100.00
19600;BME280;9947;57.722;12.012;2022-12-28T12:56:43;99389.00;;;1.80;100.00
19600;BME280;9947;57.722;12.012;2022-12-28T12:59:30;99388.03;;;1.81;100.00
19600;BME280;9947;57.722;12.012;2022-12-28T13:05:06;99387.97;;;1.69;100.00
19600;BME280;9947;57.722;12.012;2022-12-28T13:07:43;99380.34;;;1.63;100.00
19600;BME280;9947;57.722;12.012;2022-12-28T13:10:25;99386.44;;;1.65;100.00
19600;BME280;9947;57.722;12.012;2022-12-28T13:13:01;99382.06;;;1.64;100.00
19600;BME280;9947;57.722;12.012;2022-12-28T13:15:35;99380.75;;;1.57;100.00
19600;BME280;9947;57.722;12.012;2022-12-28T13:18:04;99385.03;;;1.59;100.00
19600;BME280;9947;57.722;12.012;2022-12-28T13:20:37;99383.66;;;1.52;100.00
19600;BME280;9947;57.722;12.012;2022-12-28T13:23:04;99385.38;;;1.53;100.00
19600;BME280;9947;57.722;12.012;2022-12-28T13:25:44;99393.28;;;1.54;100.00
19600;BME280;9947;57.722;12.012;2022-12-28T13:28:20;99387.84;;;1.56;100.00
19600;BME280;9947;57.722;12.012;2022-12-28T13:30:57;99387.50;;;1.62;100.00
19600;BME280;9947;57.722;12.012;2022-12-28T13:33:32;99387.94;;;1.54;100.00
19600;BME280;9947;57.722;12.012;2022-12-28T13:36:13;99381.00;;;1.52;100.00
19600;BME280;9947;57.722;12.012;2022-12-28T13:38:46;99381.28;;;1.47;100.00
19600;BME280;9947;57.722;12.012;2022-12-28T13:41:23;99378.53;;;1.49;100.00
19600;BME280;9947;57.722;12.012;2022-12-28T13:44:26;99387.38;;;1.49;100.00
19600;BME280;9947;57.722;12.012;2022-12-28T13:47:06;99385.56;;;1.50;100.00